createdAt,value
2022-12-29T00:00:31.029Z,100954.91
2022-12-29T00:03:18.716Z,100958.67
2022-12-29T00:05:46.822Z,100958.77
2022-12-29T00:08:14.453Z,100951.92
2022-12-29T00:10:42.047Z,100954.48
2022-12-29T00:13:09.651Z,100959.64
2022-12-29T00:15:37.431Z,100960.79
2022-12-29T00:18:07.255Z,100967.39
2022-12-29T00:20:39.285Z,100962.39
2022-12-29T00:23:09.522Z,100963.54
2022-12-29T00:25:37.399Z,100962.18
2022-12-29T00:28:07.788Z,100956.27
2022-12-29T00:30:36.966Z,100950.20
2022-12-29T00:33:12.310Z,100951.18
2022-12-29T00:35:53.409Z,100956.86
2022-12-29T00:38:22.205Z,100951.63
2022-12-29T00:40:50.007Z,100949.55
2022-12-29T00:43:17.606Z,100949.39
2022-12-29T00:45:45.740Z,100955.14
2022-12-29T00:48:13.344Z,100953.83
2022-12-29T00:50:41.740Z,100951.56
2022-12-29T00:53:09.312Z,100952.27
2022-12-29T00:55:38.046Z,100955.29
2022-12-29T00:58:05.680Z,100952.77
2022-12-29T01:00:33.339Z,100952.94
2022-12-29T01:03:02.125Z,100953.73
2022-12-29T01:05:29.938Z,100950.34
2022-12-29T01:07:57.578Z,100953.89
2022-12-29T01:10:25.188Z,100957.35
2022-12-29T01:12:53.047Z,100956.71
2022-12-29T01:15:20.737Z,100957.69
2022-12-29T01:17:48.339Z,100954.12
2022-12-29T01:20:16.013Z,100952.77
2022-12-29T01:22:43.726Z,100947.64
2022-12-29T01:25:11.487Z,100946.67
2022-12-29T01:27:39.148Z,100950.91
2022-12-29T01:30:07.394Z,100955.86
2022-12-29T01:32:35.029Z,100952.19
2022-12-29T01:35:04.284Z,100946.77
2022-12-29T01:37:31.927Z,100943.73
2022-12-29T01:39:59.541Z,100943.39
2022-12-29T01:42:27.344Z,100941.48
2022-12-29T01:44:56.896Z,100940.77
2022-12-29T01:47:43.064Z,100934.50
2022-12-29T01:50:16.204Z,100940.67
2022-12-29T01:52:52.198Z,100943.33
2022-12-29T01:55:19.980Z,100939.89
2022-12-29T01:57:52.556Z,100938.74
2022-12-29T02:00:20.536Z,100934.61
2022-12-29T02:02:55.233Z,100933.19
2022-12-29T02:05:41.756Z,100933.21
2022-12-29T02:08:10.723Z,100930.52
2022-12-29T02:10:40.152Z,100927.45
2022-12-29T02:13:07.866Z,100927.94
2022-12-29T02:16:05.191Z,100920.89
2022-12-29T02:18:58.080Z,100917.65
2022-12-29T02:21:49.938Z,100915.38
2022-12-29T02:24:17.409Z,100916.77
2022-12-29T02:26:58.695Z,100915.59
2022-12-29T02:29:41.483Z,100913.86
2022-12-29T02:32:20.284Z,100917.92
2022-12-29T02:35:09.797Z,100916.17
2022-12-29T02:37:40.404Z,100914.02
2022-12-29T02:40:38.844Z,100912.02
2022-12-29T02:43:24.816Z,100915.36
2022-12-29T02:46:13.907Z,100908.37
2022-12-29T02:49:20.136Z,100902.48
2022-12-29T02:51:58.882Z,100894.45
2022-12-29T02:54:27.090Z,100893.34
2022-12-29T02:56:54.687Z,100894.47
2022-12-29T02:59:23.227Z,100896.06
2022-12-29T03:01:56.615Z,100899.11
2022-12-29T03:04:40.657Z,100902.50
2022-12-29T03:07:24.820Z,100901.30
2022-12-29T03:09:55.753Z,100893.07
2022-12-29T03:12:41.844Z,100885.27
2022-12-29T03:15:18.464Z,100882.71
2022-12-29T03:17:55.986Z,100880.75
2022-12-29T03:20:38.933Z,100878.77
2022-12-29T03:23:08.185Z,100880.91
2022-12-29T03:25:41.623Z,100883.90
2022-12-29T03:28:15.376Z,100881.55
2022-12-29T03:30:44.544Z,100872.60
2022-12-29T03:33:17.514Z,100869.38
2022-12-29T03:35:49.394Z,100869.42
2022-12-29T03:38:23.903Z,100860.93
2022-12-29T03:40:56.288Z,100861.39
2022-12-29T03:43:24.454Z,100854.20
2022-12-29T03:45:52.177Z,100850.48
2022-12-29T03:48:19.889Z,100852.25
2022-12-29T03:50:47.619Z,100852.74
2022-12-29T03:53:15.224Z,100851.27
2022-12-29T03:55:43.083Z,100850.64
2022-12-29T03:58:10.717Z,100848.33
2022-12-29T04:00:38.296Z,100853.91
2022-12-29T04:03:06.085Z,100856.77
2022-12-29T04:05:33.900Z,100862.06
2022-12-29T04:08:01.769Z,100867.49
2022-12-29T04:10:29.488Z,100869.52
2022-12-29T04:12:57.101Z,100865.40
2022-12-29T04:15:24.709Z,100863.83
2022-12-29T04:17:52.352Z,100858.02
2022-12-29T04:20:19.978Z,100858.48
2022-12-29T04:22:47.655Z,100859.25
2022-12-29T04:25:15.505Z,100865.02
2022-12-29T04:27:43.199Z,100874.44
2022-12-29T04:30:11.393Z,100877.34
2022-12-29T04:32:39.512Z,100877.73
2022-12-29T04:35:07.541Z,100876.45
2022-12-29T04:37:35.191Z,100869.94
2022-12-29T04:40:02.936Z,100873.08
2022-12-29T04:42:30.611Z,100871.16
2022-12-29T04:44:58.224Z,100866.29
2022-12-29T04:47:25.827Z,100865.83
2022-12-29T04:49:53.411Z,100870.49
2022-12-29T04:52:20.999Z,100863.60
2022-12-29T04:54:48.679Z,100856.23
2022-12-29T04:57:16.320Z,100856.02
2022-12-29T04:59:44.065Z,100858.59
2022-12-29T05:02:11.890Z,100865.77
2022-12-29T05:04:39.808Z,100869.19
2022-12-29T05:07:07.681Z,100870.86
2022-12-29T05:09:35.259Z,100871.59
2022-12-29T05:12:02.909Z,100873.98
2022-12-29T05:14:30.575Z,100873.52
2022-12-29T05:16:58.448Z,100868.66
2022-12-29T05:19:26.117Z,100873.08
2022-12-29T05:21:53.788Z,100869.08
2022-12-29T05:24:21.412Z,100865.23
2022-12-29T05:26:49.219Z,100864.05
2022-12-29T05:29:16.998Z,100865.16
2022-12-29T05:31:45.864Z,100863.51
2022-12-29T05:34:13.581Z,100869.38
2022-12-29T05:36:41.955Z,100863.56
2022-12-29T05:39:09.615Z,100863.64
2022-12-29T05:41:37.289Z,100858.45
2022-12-29T05:44:04.993Z,100858.22
2022-12-29T05:46:32.850Z,100856.05
2022-12-29T05:49:01.106Z,100856.52
2022-12-29T05:51:29.018Z,100856.48
2022-12-29T05:53:56.733Z,100858.62
2022-12-29T05:56:24.659Z,100853.85
2022-12-29T05:58:52.381Z,100850.50
2022-12-29T06:01:20.058Z,100845.14
2022-12-29T06:03:48.539Z,100845.69
2022-12-29T06:06:16.404Z,100842.73
2022-12-29T06:08:44.383Z,100842.14
2022-12-29T06:11:12.207Z,100841.20
2022-12-29T06:13:39.819Z,100847.56
2022-12-29T06:16:07.918Z,100848.20
2022-12-29T06:18:35.528Z,100842.43
2022-12-29T06:21:05.169Z,100843.35
2022-12-29T06:23:32.955Z,100842.02
2022-12-29T06:26:00.604Z,100844.98
2022-12-29T06:28:28.294Z,100846.54
2022-12-29T06:30:55.882Z,100850.55
2022-12-29T06:33:23.507Z,100850.52
2022-12-29T06:35:51.122Z,100854.11
2022-12-29T06:38:18.745Z,100855.19
2022-12-29T06:40:46.443Z,100858.84
2022-12-29T06:43:14.195Z,100852.56
2022-12-29T06:45:42.150Z,100857.77
2022-12-29T06:48:09.765Z,100855.20
2022-12-29T06:50:37.621Z,100858.86
2022-12-29T06:53:05.634Z,100861.32
2022-12-29T06:55:33.295Z,100864.73
2022-12-29T06:58:00.930Z,100865.23
2022-12-29T07:00:28.815Z,100873.48
2022-12-29T07:02:57.256Z,100865.68
2022-12-29T07:05:25.873Z,100861.85
2022-12-29T07:07:53.905Z,100860.90
2022-12-29T07:10:22.723Z,100866.41
2022-12-29T07:12:50.540Z,100870.97
2022-12-29T07:15:18.258Z,100873.41
2022-12-29T07:17:45.925Z,100881.94
2022-12-29T07:20:13.535Z,100885.80
2022-12-29T07:22:41.204Z,100876.39
2022-12-29T07:25:09.553Z,100884.96
2022-12-29T07:27:37.297Z,100880.97
2022-12-29T07:30:05.612Z,100891.81
2022-12-29T07:32:34.716Z,100896.35
2022-12-29T07:35:02.553Z,100890.39
2022-12-29T07:37:30.283Z,100884.27
2022-12-29T07:39:57.922Z,100879.60
2022-12-29T07:42:25.521Z,100876.73
2022-12-29T07:44:53.586Z,100873.91
2022-12-29T07:47:21.287Z,100879.27
2022-12-29T07:49:48.875Z,100888.15
2022-12-29T07:52:16.472Z,100887.24
2022-12-29T07:54:44.084Z,100887.91
2022-12-29T07:57:12.069Z,100883.99
2022-12-29T07:59:39.683Z,100881.40
2022-12-29T08:02:10.590Z,100883.04
2022-12-29T08:04:38.646Z,100884.02
2022-12-29T08:07:06.366Z,100882.73
2022-12-29T08:09:34.273Z,100883.75
2022-12-29T08:12:01.888Z,100881.06
2022-12-29T08:14:29.478Z,100878.08
2022-12-29T08:16:57.146Z,100875.60
2022-12-29T08:19:24.782Z,100870.38
2022-12-29T08:21:54.013Z,100871.36
2022-12-29T08:24:21.842Z,100877.45
2022-12-29T08:26:49.456Z,100875.09
2022-12-29T08:29:17.072Z,100869.69
2022-12-29T08:31:44.750Z,100868.25
2022-12-29T08:34:12.385Z,100869.58
2022-12-29T08:36:40.365Z,100865.92
2022-12-29T08:39:08.078Z,100855.10
2022-12-29T08:41:35.929Z,100862.88
2022-12-29T08:44:03.733Z,100857.40
2022-12-29T08:46:31.471Z,100857.20
2022-12-29T08:48:59.174Z,100857.23
2022-12-29T08:51:27.258Z,100851.42
2022-12-29T08:53:54.940Z,100858.60
2022-12-29T08:56:23.262Z,100858.52
2022-12-29T08:58:53.246Z,100850.64
2022-12-29T09:01:20.985Z,100858.77
2022-12-29T09:06:40.134Z,100847.24
2022-12-29T09:09:08.095Z,100845.48
2022-12-29T09:11:35.987Z,100842.29
2022-12-29T09:14:04.185Z,100830.46
2022-12-29T09:16:31.919Z,100838.08
2022-12-29T09:18:59.732Z,100837.10
2022-12-29T09:21:27.352Z,100830.25
2022-12-29T09:23:55.006Z,100829.75
2022-12-29T09:26:22.601Z,100822.05
2022-12-29T09:28:50.255Z,100827.73
2022-12-29T09:31:18.036Z,100831.41
2022-12-29T09:33:45.680Z,100819.58
2022-12-29T09:36:13.310Z,100815.78
2022-12-29T09:38:40.925Z,100818.02
2022-12-29T09:41:33.360Z,100819.59
2022-12-29T09:44:36.398Z,100806.29
2022-12-29T09:47:04.547Z,100799.83
2022-12-29T09:49:45.993Z,100803.14
2022-12-29T09:52:19.457Z,100797.58
2022-12-29T09:55:02.875Z,100789.58
2022-12-29T09:57:50.626Z,100789.20
2022-12-29T10:00:22.175Z,100794.74
2022-12-29T10:03:06.718Z,100802.38
2022-12-29T10:05:47.171Z,100795.20
2022-12-29T10:08:40.550Z,100790.63
2022-12-29T10:11:20.280Z,100779.44
2022-12-29T10:13:54.034Z,100779.37
2022-12-29T10:16:44.815Z,100783.63
2022-12-29T10:19:21.255Z,100775.52
2022-12-29T10:22:16.819Z,100768.37
2022-12-29T10:24:48.523Z,100763.65
2022-12-29T10:27:17.290Z,100766.24
2022-12-29T10:29:52.376Z,100761.18
2022-12-29T10:32:41.227Z,100762.22
2022-12-29T10:35:20.184Z,100764.46
2022-12-29T10:38:10.541Z,100765.26
2022-12-29T10:40:52.011Z,100766.61
2022-12-29T10:43:35.161Z,100771.64
2022-12-29T10:46:08.142Z,100770.88
2022-12-29T10:48:36.482Z,100767.33
2022-12-29T10:51:07.244Z,100760.38
2022-12-29T10:54:00.115Z,100756.58
2022-12-29T10:56:35.378Z,100748.55
2022-12-29T10:59:14.046Z,100736.46
2022-12-29T11:01:56.686Z,100731.56
2022-12-29T11:04:45.948Z,100721.88
2022-12-29T11:07:19.015Z,100715.56
2022-12-29T11:09:49.755Z,100713.48
2022-12-29T11:12:22.218Z,100708.18
2022-12-29T11:15:08.258Z,100706.58
2022-12-29T11:17:52.725Z,100705.56
2022-12-29T11:20:34.172Z,100708.85
2022-12-29T11:23:03.482Z,100714.17
2022-12-29T11:25:31.663Z,100708.73
2022-12-29T11:28:17.999Z,100704.29
2022-12-29T11:30:45.631Z,100696.44
2022-12-29T11:33:13.241Z,100690.65
2022-12-29T11:35:45.580Z,100695.31
2022-12-29T11:38:26.477Z,100683.66
2022-12-29T11:40:54.261Z,100675.80
2022-12-29T11:43:38.938Z,100672.75
2022-12-29T11:46:07.734Z,100673.25
2022-12-29T11:48:43.386Z,100664.64
2022-12-29T11:51:12.602Z,100664.77
2022-12-29T11:53:45.944Z,100662.77
2022-12-29T11:56:18.654Z,100657.67
2022-12-29T11:58:46.629Z,100653.52
2022-12-29T12:01:30.182Z,100649.84
2022-12-29T12:04:03.200Z,100648.56
2022-12-29T12:06:36.207Z,100649.11
2022-12-29T12:09:11.415Z,100648.25
2022-12-29T12:11:43.249Z,100655.34
2022-12-29T12:14:21.434Z,100656.29
2022-12-29T12:16:56.309Z,100656.14
2022-12-29T12:19:44.404Z,100658.34
2022-12-29T12:22:20.542Z,100664.53
2022-12-29T12:24:53.255Z,100661.96
2022-12-29T12:27:38.760Z,100663.60
2022-12-29T12:30:06.710Z,100648.70
2022-12-29T12:32:40.184Z,100643.55
2022-12-29T12:35:21.569Z,100644.73
2022-12-29T12:38:19.975Z,100650.80
2022-12-29T12:40:57.491Z,100649.38
2022-12-29T12:43:45.806Z,100649.95
2022-12-29T12:46:39.413Z,100638.40
2022-12-29T12:49:45.848Z,100621.41
2022-12-29T12:52:40.951Z,100606.28
2022-12-29T12:55:46.884Z,100596.27
2022-12-29T12:58:20.629Z,100597.71
2022-12-29T13:01:24.146Z,100602.58
2022-12-29T13:04:03.247Z,100608.91
2022-12-29T13:06:58.937Z,100615.27
2022-12-29T13:09:26.724Z,100621.41
2022-12-29T13:12:06.792Z,100628.24
2022-12-29T13:14:49.879Z,100634.84
2022-12-29T13:17:31.404Z,100647.92
2022-12-29T13:19:58.994Z,100645.23
2022-12-29T13:22:52.352Z,100646.17
2022-12-29T13:25:36.017Z,100646.67
2022-12-29T13:28:13.884Z,100645.20
2022-12-29T13:31:18.928Z,100648.52
2022-12-29T13:34:01.650Z,100644.91
2022-12-29T13:36:44.523Z,100643.79
2022-12-29T13:39:20.925Z,100657.86
2022-12-29T13:42:00.131Z,100663.73
2022-12-29T13:44:36.358Z,100663.55
2022-12-29T13:47:19.800Z,100663.04
2022-12-29T13:49:49.143Z,100667.20
2022-12-29T13:52:41.095Z,100667.86
2022-12-29T13:55:08.640Z,100669.52
2022-12-29T13:57:49.166Z,100666.85
2022-12-29T14:00:22.129Z,100668.90
2022-12-29T14:02:55.915Z,100668.78
2022-12-29T14:05:23.659Z,100667.66
2022-12-29T14:08:19.841Z,100666.91
2022-12-29T14:10:51.129Z,100669.89
2022-12-29T14:13:24.734Z,100672.75
2022-12-29T14:15:55.536Z,100675.72
2022-12-29T14:18:26.472Z,100675.98
2022-12-29T14:20:58.751Z,100674.30
2022-12-29T14:23:30.126Z,100674.23
2022-12-29T14:26:05.470Z,100680.77
2022-12-29T14:28:36.951Z,100676.89
2022-12-29T14:31:26.113Z,100675.59
2022-12-29T14:34:12.203Z,100674.04
2022-12-29T14:36:42.267Z,100671.67
2022-12-29T14:39:45.915Z,100673.64
2022-12-29T14:42:16.234Z,100667.52
2022-12-29T14:44:50.602Z,100670.27
2022-12-29T14:47:37.447Z,100669.52
2022-12-29T14:50:15.636Z,100679.38
2022-12-29T14:53:05.272Z,100677.95
2022-12-29T14:55:56.155Z,100680.08
2022-12-29T14:58:29.253Z,100690.77
2022-12-29T15:00:57.562Z,100689.50
2022-12-29T15:03:44.861Z,100689.31
2022-12-29T15:06:15.707Z,100688.22
2022-12-29T15:09:15.806Z,100692.89
2022-12-29T15:11:50.690Z,100693.73
2022-12-29T15:14:33.402Z,100691.73
2022-12-29T15:17:02.881Z,100689.92
2022-12-29T15:19:30.508Z,100693.95
2022-12-29T15:21:58.228Z,100699.29
2022-12-29T15:24:25.852Z,100705.14
2022-12-29T15:26:56.520Z,100709.88
2022-12-29T15:29:45.160Z,100720.39
2022-12-29T15:32:15.892Z,100725.06
2022-12-29T15:34:45.476Z,100720.50
2022-12-29T15:37:39.339Z,100718.81
2022-12-29T15:40:24.111Z,100714.16
2022-12-29T15:43:06.622Z,100703.64
2022-12-29T15:45:35.987Z,100707.11
2022-12-29T15:48:06.310Z,100710.08
2022-12-29T15:50:36.631Z,100707.73
2022-12-29T15:53:12.065Z,100708.21
2022-12-29T15:55:42.513Z,100703.85
2022-12-29T15:58:29.016Z,100702.70
2022-12-29T16:01:02.794Z,100701.89
2022-12-29T16:03:37.142Z,100700.79
2022-12-29T16:06:10.851Z,100705.41
2022-12-29T16:08:40.795Z,100704.00
2022-12-29T16:11:31.242Z,100706.30
2022-12-29T16:13:59.117Z,100704.98
2022-12-29T16:16:28.756Z,100710.08
2022-12-29T16:18:58.394Z,100712.42
2022-12-29T16:21:32.661Z,100712.17
2022-12-29T16:24:09.846Z,100716.48
2022-12-29T16:26:37.566Z,100707.67
2022-12-29T16:29:08.145Z,100716.80
2022-12-29T16:31:50.215Z,100714.45
2022-12-29T16:34:32.719Z,100719.89
2022-12-29T16:37:05.997Z,100720.97
2022-12-29T16:39:33.577Z,100713.95
2022-12-29T16:42:02.025Z,100713.75
2022-12-29T16:44:31.762Z,100712.59
2022-12-29T16:47:04.269Z,100717.34
2022-12-29T16:49:34.958Z,100717.06
2022-12-29T16:52:13.676Z,100720.08
2022-12-29T16:54:42.111Z,100720.83
2022-12-29T16:57:09.979Z,100727.05
2022-12-29T16:59:43.256Z,100725.05
2022-12-29T17:02:17.614Z,100724.11
2022-12-29T17:04:45.460Z,100718.77
2022-12-29T17:07:31.198Z,100723.63
2022-12-29T17:09:58.793Z,100722.80
2022-12-29T17:12:29.829Z,100730.16
2022-12-29T17:15:20.410Z,100731.30
2022-12-29T17:17:50.657Z,100732.12
2022-12-29T17:20:27.513Z,100725.38
2022-12-29T17:22:55.709Z,100723.01
2022-12-29T17:25:29.234Z,100719.08
2022-12-29T17:28:00.645Z,100720.54
2022-12-29T17:30:33.577Z,100721.98
2022-12-29T17:33:07.746Z,100719.66
2022-12-29T17:35:35.991Z,100718.98
2022-12-29T17:38:19.035Z,100718.48
2022-12-29T17:40:47.443Z,100723.37
2022-12-29T17:43:15.971Z,100722.98
2022-12-29T17:45:47.137Z,100720.84
2022-12-29T17:48:17.317Z,100728.75
2022-12-29T17:50:47.519Z,100724.98
2022-12-29T17:53:27.840Z,100728.45
2022-12-29T17:55:55.503Z,100729.31
2022-12-29T17:58:24.148Z,100721.14
2022-12-29T18:00:58.384Z,100718.41
2022-12-29T18:03:32.056Z,100724.23
2022-12-29T18:06:01.617Z,100713.30
2022-12-29T18:08:29.342Z,100710.77
2022-12-29T18:10:57.524Z,100704.98
2022-12-29T18:13:40.429Z,100701.49
2022-12-29T18:16:15.165Z,100707.38
2022-12-29T18:18:42.921Z,100698.42
2022-12-29T18:21:36.827Z,100699.61
2022-12-29T18:24:04.749Z,100695.98
2022-12-29T18:26:32.360Z,100694.73
2022-12-29T18:28:59.993Z,100694.80
2022-12-29T18:31:30.635Z,100695.39
2022-12-29T18:34:01.265Z,100697.38
2022-12-29T18:36:29.429Z,100697.91
2022-12-29T18:38:57.114Z,100695.48
2022-12-29T18:41:28.103Z,100689.09
2022-12-29T18:43:56.445Z,100687.08
2022-12-29T18:46:24.204Z,100688.54
2022-12-29T18:48:52.498Z,100688.02
2022-12-29T18:51:22.540Z,100683.20
2022-12-29T18:53:51.187Z,100689.03
2022-12-29T18:56:18.885Z,100692.84
2022-12-29T18:58:46.525Z,100688.26
2022-12-29T19:01:23.598Z,100687.40
2022-12-29T19:03:51.861Z,100681.10
2022-12-29T19:06:20.430Z,100691.38
2022-12-29T19:08:48.400Z,100691.52
2022-12-29T19:11:16.129Z,100682.98
2022-12-29T19:13:43.736Z,100687.75
2022-12-29T19:16:20.777Z,100688.02
2022-12-29T19:19:04.050Z,100685.05
2022-12-29T19:21:35.790Z,100680.65
2022-12-29T19:24:03.552Z,100680.75
2022-12-29T19:26:34.240Z,100676.60
2022-12-29T19:29:02.964Z,100672.22
2022-12-29T19:31:30.650Z,100675.77
2022-12-29T19:33:58.296Z,100673.09
2022-12-29T19:36:25.878Z,100675.19
2022-12-29T19:38:54.114Z,100677.08
2022-12-29T19:41:21.756Z,100678.02
2022-12-29T19:43:49.375Z,100675.59
2022-12-29T19:46:19.296Z,100676.92
2022-12-29T19:48:47.000Z,100673.94
2022-12-29T19:51:16.254Z,100674.15
2022-12-29T19:53:45.219Z,100677.41
2022-12-29T19:56:13.832Z,100679.25
2022-12-29T19:58:46.910Z,100673.64
2022-12-29T20:01:21.474Z,100675.88
2022-12-29T20:03:49.866Z,100671.74
2022-12-29T20:06:20.921Z,100667.56
2022-12-29T20:08:48.624Z,100671.52
2022-12-29T20:11:18.446Z,100667.84
2022-12-29T20:13:47.391Z,100667.88
2022-12-29T20:16:18.531Z,100666.47
2022-12-29T20:18:49.963Z,100666.86
2022-12-29T20:21:20.704Z,100661.20
2022-12-29T20:23:49.723Z,100660.69
2022-12-29T20:26:23.708Z,100657.45
2022-12-29T20:28:52.394Z,100655.41
2022-12-29T20:31:24.895Z,100656.74
2022-12-29T20:33:52.627Z,100654.83
2022-12-29T20:36:34.835Z,100654.46
2022-12-29T20:39:06.712Z,100654.77
2022-12-29T20:41:34.937Z,100653.31
2022-12-29T20:44:03.525Z,100655.90
2022-12-29T20:46:36.703Z,100659.95
2022-12-29T20:49:10.833Z,100658.17
2022-12-29T20:52:04.973Z,100658.11
2022-12-29T20:54:26.145Z,100657.98
2022-12-29T20:56:54.090Z,100654.62
2022-12-29T20:59:29.415Z,100662.45
2022-12-29T21:01:58.388Z,100657.79
2022-12-29T21:04:26.522Z,100655.50
2022-12-29T21:06:54.845Z,100654.05
2022-12-29T21:09:22.644Z,100654.06
2022-12-29T21:11:50.280Z,100656.33
2022-12-29T21:14:17.977Z,100655.42
2022-12-29T21:16:45.708Z,100657.71
2022-12-29T21:19:13.303Z,100668.96
2022-12-29T21:21:40.903Z,100663.48
2022-12-29T21:24:08.554Z,100670.78
2022-12-29T21:26:36.180Z,100672.52
2022-12-29T21:29:04.156Z,100670.58
2022-12-29T21:31:36.685Z,100660.75
2022-12-29T21:34:05.979Z,100660.10
2022-12-29T21:36:34.246Z,100659.84
2022-12-29T21:39:02.755Z,100652.58
2022-12-29T21:41:31.424Z,100651.82
2022-12-29T21:44:00.284Z,100654.34
2022-12-29T21:46:28.023Z,100653.74
2022-12-29T21:48:55.777Z,100651.48
2022-12-29T21:51:29.943Z,100639.71
2022-12-29T21:54:01.387Z,100639.77
2022-12-29T21:56:28.982Z,100638.31
2022-12-29T21:58:56.615Z,100640.20
2022-12-29T22:01:25.851Z,100641.08
2022-12-29T22:03:53.639Z,100646.73
2022-12-29T22:06:21.256Z,100651.38
2022-12-29T22:08:48.908Z,100657.42
2022-12-29T22:11:16.589Z,100663.78
2022-12-29T22:13:44.195Z,100663.44
2022-12-29T22:16:12.424Z,100658.31
2022-12-29T22:18:40.176Z,100662.83
2022-12-29T22:21:09.866Z,100663.06
2022-12-29T22:23:37.871Z,100667.05
2022-12-29T22:26:10.884Z,100664.52
2022-12-29T22:28:40.909Z,100660.33
2022-12-29T22:31:29.855Z,100661.87
2022-12-29T22:33:59.803Z,100661.30
2022-12-29T22:36:28.442Z,100659.17
2022-12-29T22:38:56.350Z,100648.60
2022-12-29T22:41:24.096Z,100647.09
2022-12-29T22:43:52.247Z,100641.85
2022-12-29T22:46:19.996Z,100642.67
2022-12-29T22:48:47.639Z,100633.70
2022-12-29T22:51:15.272Z,100631.77
2022-12-29T22:53:42.873Z,100632.64
2022-12-29T22:56:15.235Z,100635.03
2022-12-29T22:58:45.275Z,100631.19
2022-12-29T23:01:15.162Z,100632.02
2022-12-29T23:03:43.929Z,100633.80
2022-12-29T23:06:13.697Z,100631.04
2022-12-29T23:08:41.861Z,100625.69
2022-12-29T23:11:12.627Z,100622.13
2022-12-29T23:13:41.251Z,100622.73
2022-12-29T23:16:08.924Z,100614.70
2022-12-29T23:18:37.445Z,100625.80
2022-12-29T23:21:05.674Z,100629.15
2022-12-29T23:23:33.405Z,100628.74
2022-12-29T23:26:01.091Z,100628.02
2022-12-29T23:28:28.767Z,100620.04
2022-12-29T23:30:56.444Z,100619.58
2022-12-29T23:33:24.362Z,100619.37
2022-12-29T23:35:51.957Z,100617.83
2022-12-29T23:38:19.700Z,100619.33
2022-12-29T23:40:47.298Z,100620.88
2022-12-29T23:43:14.926Z,100621.14
2022-12-29T23:45:47.389Z,100616.46
2022-12-29T23:48:19.286Z,100613.87
2022-12-29T23:50:47.163Z,100616.96
2022-12-29T23:53:14.958Z,100614.03
2022-12-29T23:55:44.380Z,100605.05
2022-12-29T23:58:13.133Z,100593.29
